Time;durP1;ratioP1;P1;durP2;ratioP2;P2;SDS_P1;SDS_P2;PMS_P1;PMS_P2;Temp;Humidity;BMP_temperature;BMP_pressure;BME280_temperature;BME280_humidity;BME280_pressure;Samples;Min_cycle;Max_cycle;Signal;HPM_P1;HPM_P2
2022/03/31 00:01:05;;;;;;;26.60;10.80;;;;;;;;;;4938544;29;20054;-67
2022/03/31 00:03:34;;;;;;;26.70;11.75;;;;;;;;;;4938539;29;20103;-67
2022/03/31 00:06:02;;;;;;;18.52;11.15;;;;;;;;;;4951093;29;20047;-67
2022/03/31 00:08:31;;;;;;;17.23;11.57;;;;;;;;;;4957094;28;20058;-67
2022/03/31 00:11:00;;;;;;;24.10;11.88;;;;;;;;;;4957446;28;20138;-67
2022/03/31 00:13:29;;;;;;;26.45;10.68;;;;;;;;;;4957397;28;20039;-67
2022/03/31 00:16:01;;;;;;;19.08;9.50;;;;;;;;;;4957864;28;20062;-67
2022/03/31 00:18:31;;;;;;;21.05;10.15;;;;;;;;;;4957267;28;20043;-67
2022/03/31 00:21:00;;;;;;;21.02;10.55;;;;;;;;;;4956986;28;20051;-67
2022/03/31 00:23:29;;;;;;;29.60;10.65;;;;;;;;;;4956763;28;20511;-67
2022/03/31 00:25:58;;;;;;;26.42;10.25;;;;;;;;;;4957070;28;20077;-67
2022/03/31 00:28:27;;;;;;;22.30;10.50;;;;;;;;;;4956523;28;20135;-67
2022/03/31 00:30:55;;;;;;;22.23;11.73;;;;;;;;;;4957215;28;20415;-67
2022/03/31 00:33:25;;;;;;;18.85;11.35;;;;;;;;;;4956589;28;20054;-67
2022/03/31 00:35:54;;;;;;;24.48;11.15;;;;;;;;;;4956964;28;20085;-67
2022/03/31 00:38:23;;;;;;;31.38;13.43;;;;;;;;;;4956282;28;20079;-67
2022/03/31 00:40:53;;;;;;;22.05;11.15;;;;;;;;;;4957040;28;20066;-67
2022/03/31 00:43:22;;;;;;;24.77;10.90;;;;;;;;;;4956925;28;20051;-67
2022/03/31 00:45:56;;;;;;;33.40;12.73;;;;;;;;;;4956690;28;20051;-67
2022/03/31 00:48:27;;;;;;;18.40;9.85;;;;;;;;;;4956833;28;20051;-67
2022/03/31 00:50:57;;;;;;;24.00;12.43;;;;;;;;;;4955370;28;20176;-67
2022/03/31 00:53:26;;;;;;;24.45;11.68;;;;;;;;;;4955905;28;20102;-67
2022/03/31 00:55:58;;;;;;;20.02;12.13;;;;;;;;;;4956474;28;20495;-67
2022/03/31 00:58:27;;;;;;;25.55;12.00;;;;;;;;;;4955730;28;20071;-67
2022/03/31 01:00:55;;;;;;;27.08;13.10;;;;;;;;;;4956056;28;20055;-67
2022/03/31 01:03:25;;;;;;;24.00;12.43;;;;;;;;;;4956721;28;20051;-67
2022/03/31 01:05:55;;;;;;;26.65;13.80;;;;;;;;;;4956012;28;20066;-67
2022/03/31 01:08:24;;;;;;;24.40;11.00;;;;;;;;;;4955861;28;20051;-67
2022/03/31 01:10:54;;;;;;;27.33;12.82;;;;;;;;;;4956046;28;20047;-67
2022/03/31 01:13:22;;;;;;;23.90;11.77;;;;;;;;;;4955693;28;20098;-67
2022/03/31 01:15:50;;;;;;;29.10;9.52;;;;;;;;;;4956317;28;20106;-67
2022/03/31 01:18:19;;;;;;;22.15;9.88;;;;;;;;;;4956105;28;20083;-67
2022/03/31 01:20:48;;;;;;;28.55;10.38;;;;;;;;;;4956276;28;20051;-67
2022/03/31 01:23:21;;;;;;;45.25;14.30;;;;;;;;;;4946936;28;20521;-67
2022/03/31 01:25:53;;;;;;;22.52;12.07;;;;;;;;;;4947975;29;20594;-67
2022/03/31 01:28:21;;;;;;;31.85;10.63;;;;;;;;;;4949181;29;20043;-67
2022/03/31 01:30:50;;;;;;;26.70;12.55;;;;;;;;;;4944485;28;20057;-67
2022/03/31 01:33:18;;;;;;;25.95;10.18;;;;;;;;;;4955147;28;20059;-67
2022/03/31 01:35:47;;;;;;;33.90;11.43;;;;;;;;;;4955418;28;20062;-67
2022/03/31 01:38:15;;;;;;;26.63;12.32;;;;;;;;;;4955323;28;20417;-67
2022/03/31 01:40:44;;;;;;;27.85;11.93;;;;;;;;;;4954407;29;20047;-67
2022/03/31 01:43:13;;;;;;;25.10;11.75;;;;;;;;;;4955169;28;20051;-67
2022/03/31 01:45:43;;;;;;;22.45;12.15;;;;;;;;;;4955153;28;20055;-67
2022/03/31 01:48:35;;;;;;;23.42;13.45;;;;;;;;;;4955235;28;20047;-67
2022/03/31 01:51:07;;;;;;;22.98;12.00;;;;;;;;;;4936464;29;20103;-67
2022/03/31 01:53:37;;;;;;;22.67;11.48;;;;;;;;;;4936926;29;20080;-67
2022/03/31 01:56:06;;;;;;;22.45;10.75;;;;;;;;;;4936927;28;20055;-67
2022/03/31 01:58:34;;;;;;;26.60;12.48;;;;;;;;;;4936837;29;20478;-67
2022/03/31 02:01:04;;;;;;;19.20;9.93;;;;;;;;;;4936671;29;20051;-67
2022/03/31 02:03:34;;;;;;;17.30;9.88;;;;;;;;;;4937172;28;20400;-67
2022/03/31 02:06:02;;;;;;;22.85;9.95;;;;;;;;;;4935880;29;20052;-67
2022/03/31 02:08:32;;;;;;;23.02;10.00;;;;;;;;;;4936435;29;20546;-67
2022/03/31 02:11:02;;;;;;;30.13;11.05;;;;;;;;;;4941903;29;20129;-67
2022/03/31 02:13:31;;;;;;;29.75;11.18;;;;;;;;;;4954770;28;20043;-67
2022/03/31 02:15:59;;;;;;;24.67;11.90;;;;;;;;;;4954869;28;20049;-67
2022/03/31 02:18:27;;;;;;;28.20;11.23;;;;;;;;;;4955380;28;20055;-67
2022/03/31 02:20:56;;;;;;;23.60;10.82;;;;;;;;;;4955375;28;20047;-67
2022/03/31 02:23:25;;;;;;;22.17;10.98;;;;;;;;;;4955246;28;20109;-67
2022/03/31 02:25:56;;;;;;;19.38;10.75;;;;;;;;;;4954739;28;20047;-67
2022/03/31 02:28:25;;;;;;;25.83;11.93;;;;;;;;;;4954986;28;20110;-67
2022/03/31 02:30:54;;;;;;;26.58;11.55;;;;;;;;;;4955052;28;20076;-67
2022/03/31 02:33:23;;;;;;;24.30;11.63;;;;;;;;;;4954928;28;20070;-67
2022/03/31 02:35:52;;;;;;;23.23;9.75;;;;;;;;;;4955620;28;20062;-67
2022/03/31 02:38:22;;;;;;;27.98;12.18;;;;;;;;;;4954557;28;20510;-67
2022/03/31 02:40:51;;;;;;;21.65;11.13;;;;;;;;;;4936050;29;20048;-67
2022/03/31 02:43:19;;;;;;;22.92;11.45;;;;;;;;;;4935985;28;20059;-67
2022/03/31 02:45:47;;;;;;;25.80;12.45;;;;;;;;;;4935888;28;20060;-67
2022/03/31 02:48:15;;;;;;;22.02;12.68;;;;;;;;;;4936454;28;20051;-67
2022/03/31 02:50:43;;;;;;;23.75;12.25;;;;;;;;;;4935932;29;20051;-67
2022/03/31 02:56:00;;;;;;;23.15;12.18;;;;;;;;;;4935960;28;20062;-67
2022/03/31 02:58:30;;;;;;;19.17;12.00;;;;;;;;;;4935787;29;20051;-67
2022/03/31 03:00:58;;;;;;;28.58;11.75;;;;;;;;;;4935589;29;20079;-66
2022/03/31 03:03:28;;;;;;;24.65;10.80;;;;;;;;;;4936031;28;20074;-67
2022/03/31 03:05:58;;;;;;;19.73;11.18;;;;;;;;;;4948882;29;20047;-67
2022/03/31 03:08:27;;;;;;;27.30;11.48;;;;;;;;;;4955090;28;20134;-67
2022/03/31 03:10:57;;;;;;;21.90;11.13;;;;;;;;;;4939317;28;20521;-67
2022/03/31 03:13:25;;;;;;;32.00;13.90;;;;;;;;;;4935863;29;20410;-67
2022/03/31 03:15:54;;;;;;;27.63;12.25;;;;;;;;;;4935623;29;20052;-67
2022/03/31 03:18:24;;;;;;;21.00;12.20;;;;;;;;;;4934543;29;20055;-66
2022/03/31 03:20:53;;;;;;;29.15;13.18;;;;;;;;;;4936097;29;20056;-66
2022/03/31 03:23:23;;;;;;;19.58;13.15;;;;;;;;;;4939305;28;20102;-67
2022/03/31 03:25:52;;;;;;;22.52;13.15;;;;;;;;;;4939097;29;20054;-67
2022/03/31 03:28:22;;;;;;;28.77;12.15;;;;;;;;;;4938596;29;20503;-67
2022/03/31 03:30:51;;;;;;;24.35;14.70;;;;;;;;;;4939410;29;20052;-66
2022/03/31 03:33:23;;;;;;;27.42;14.57;;;;;;;;;;4938736;28;20103;-66
2022/03/31 03:35:54;;;;;;;32.78;16.77;;;;;;;;;;4939233;29;20056;-67
2022/03/31 03:38:22;;;;;;;20.92;12.93;;;;;;;;;;4938908;29;20566;-66
2022/03/31 03:40:49;;;;;;;32.17;14.93;;;;;;;;;;4942216;28;20094;-66
2022/03/31 03:43:18;;;;;;;19.35;11.35;;;;;;;;;;4957703;28;20583;-66
2022/03/31 03:45:48;;;;;;;31.58;13.60;;;;;;;;;;4957467;28;20058;-67
2022/03/31 03:48:20;;;;;;;22.95;12.43;;;;;;;;;;4958539;28;20051;-66
2022/03/31 03:50:50;;;;;;;28.70;14.10;;;;;;;;;;4957390;28;20486;-66
2022/03/31 03:53:22;;;;;;;20.75;15.13;;;;;;;;;;4957607;28;20557;-66
2022/03/31 03:55:51;;;;;;;31.90;15.02;;;;;;;;;;4939544;28;20736;-67
2022/03/31 03:58:23;;;;;;;21.08;15.60;;;;;;;;;;4947305;28;20064;-68
2022/03/31 04:00:53;;;;;;;35.22;16.38;;;;;;;;;;4944005;29;20075;-68
2022/03/31 04:03:22;;;;;;;32.72;17.25;;;;;;;;;;4948177;28;20518;-68
2022/03/31 04:05:51;;;;;;;27.10;16.15;;;;;;;;;;4949070;28;20491;-68
2022/03/31 04:08:21;;;;;;;27.00;14.85;;;;;;;;;;4945441;28;20415;-68
2022/03/31 04:10:50;;;;;;;22.13;13.70;;;;;;;;;;4942786;28;20488;-67
2022/03/31 04:13:19;;;;;;;26.15;15.60;;;;;;;;;;4953224;28;20059;-67
2022/03/31 04:15:48;;;;;;;31.23;12.48;;;;;;;;;;4948408;29;20064;-68
2022/03/31 04:18:17;;;;;;;23.60;13.85;;;;;;;;;;4946148;29;20519;-68
2022/03/31 04:20:51;;;;;;;29.40;15.25;;;;;;;;;;4949613;28;20065;-68
2022/03/31 04:23:22;;;;;;;31.17;16.02;;;;;;;;;;4948695;28;20075;-68
2022/03/31 04:25:51;;;;;;;25.77;13.27;;;;;;;;;;4952154;28;20482;-68
2022/03/31 04:28:19;;;;;;;31.70;15.05;;;;;;;;;;4943804;29;20043;-67
2022/03/31 04:30:47;;;;;;;37.25;14.50;;;;;;;;;;4943957;28;20093;-68
2022/03/31 04:33:18;;;;;;;37.05;15.25;;;;;;;;;;4948155;28;20039;-68
2022/03/31 04:35:48;;;;;;;24.00;14.68;;;;;;;;;;4948018;28;20058;-68
2022/03/31 04:38:16;;;;;;;27.65;14.80;;;;;;;;;;4944702;29;20503;-67
2022/03/31 04:40:45;;;;;;;27.08;16.33;;;;;;;;;;4945582;29;20052;-68
2022/03/31 04:43:15;;;;;;;31.52;14.88;;;;;;;;;;4944921;29;20048;-67
2022/03/31 04:45:44;;;;;;;21.60;12.85;;;;;;;;;;4946838;28;20067;-68
2022/03/31 04:48:15;;;;;;;30.15;15.00;;;;;;;;;;4946924;29;20067;-67
2022/03/31 04:50:43;;;;;;;21.80;14.13;;;;;;;;;;4947287;28;20068;-68
2022/03/31 04:53:14;;;;;;;32.95;16.35;;;;;;;;;;4942751;29;20463;-72
2022/03/31 04:55:43;;;;;;;29.67;17.27;;;;;;;;;;4950531;29;20063;-72
2022/03/31 04:58:12;;;;;;;34.28;15.60;;;;;;;;;;4944176;28;20055;-70
2022/03/31 05:00:40;;;;;;;24.58;15.25;;;;;;;;;;4937391;29;20055;-69
2022/03/31 05:03:09;;;;;;;24.63;15.05;;;;;;;;;;4937902;29;20058;-70
2022/03/31 05:05:37;;;;;;;24.80;15.15;;;;;;;;;;4937527;28;20055;-70
2022/03/31 05:08:06;;;;;;;28.65;16.27;;;;;;;;;;4937264;29;20518;-70
2022/03/31 05:10:36;;;;;;;28.05;15.23;;;;;;;;;;4937797;28;20055;-70
2022/03/31 05:13:05;;;;;;;23.00;16.10;;;;;;;;;;4937380;29;20051;-69
2022/03/31 05:15:32;;;;;;;29.00;18.92;;;;;;;;;;4949289;29;20048;-70
2022/03/31 05:18:01;;;;;;;25.17;17.77;;;;;;;;;;4955999;29;20098;-68
2022/03/31 05:20:31;;;;;;;26.80;16.85;;;;;;;;;;4955773;28;20047;-71
2022/03/31 05:22:59;;;;;;;25.02;16.17;;;;;;;;;;4955354;28;20054;-71
2022/03/31 05:25:28;;;;;;;27.88;17.13;;;;;;;;;;4956069;28;20205;-70
2022/03/31 05:27:58;;;;;;;34.35;19.10;;;;;;;;;;4955322;28;20122;-70
2022/03/31 05:30:28;;;;;;;26.08;16.88;;;;;;;;;;4954377;28;20137;-70
2022/03/31 05:32:59;;;;;;;30.15;17.40;;;;;;;;;;4937249;29;20071;-70
2022/03/31 05:35:29;;;;;;;27.98;18.35;;;;;;;;;;4952862;29;20086;-70
2022/03/31 05:38:01;;;;;;;31.55;18.70;;;;;;;;;;4955707;28;20162;-69
2022/03/31 05:40:30;;;;;;;37.42;17.27;;;;;;;;;;4955452;28;20047;-70
2022/03/31 05:43:00;;;;;;;31.90;19.88;;;;;;;;;;4955491;28;20392;-71
2022/03/31 05:45:30;;;;;;;27.33;17.27;;;;;;;;;;4946022;28;20052;-70
2022/03/31 05:48:03;;;;;;;37.13;18.80;;;;;;;;;;4941575;29;20050;-68
2022/03/31 05:50:36;;;;;;;32.80;19.92;;;;;;;;;;4951840;29;20067;-68
2022/03/31 05:53:05;;;;;;;32.85;18.60;;;;;;;;;;4945535;29;20181;-69
2022/03/31 05:55:34;;;;;;;26.80;18.10;;;;;;;;;;4946141;28;20055;-69
2022/03/31 05:58:04;;;;;;;30.23;18.98;;;;;;;;;;4945596;28;20073;-71
2022/03/31 06:00:32;;;;;;;30.05;17.55;;;;;;;;;;4947143;29;20514;-71
2022/03/31 06:03:01;;;;;;;25.50;17.58;;;;;;;;;;4953201;28;20054;-69
2022/03/31 06:05:30;;;;;;;38.38;18.73;;;;;;;;;;4951622;28;20051;-70
2022/03/31 06:07:59;;;;;;;29.52;18.15;;;;;;;;;;4945106;28;20541;-70
2022/03/31 06:10:28;;;;;;;24.67;15.82;;;;;;;;;;4937377;28;20051;-68
2022/03/31 06:12:57;;;;;;;32.30;17.08;;;;;;;;;;4949450;28;20109;-69
2022/03/31 06:15:27;;;;;;;22.15;16.67;;;;;;;;;;4948953;28;20127;-70
2022/03/31 06:17:57;;;;;;;30.20;17.80;;;;;;;;;;4941668;28;20457;-70
2022/03/31 06:20:27;;;;;;;28.13;18.08;;;;;;;;;;4936044;28;20419;-70
2022/03/31 06:22:58;;;;;;;28.58;15.80;;;;;;;;;;4936475;29;20048;-70
2022/03/31 06:25:26;;;;;;;24.55;17.00;;;;;;;;;;4941536;29;20176;-69
2022/03/31 06:27:54;;;;;;;31.75;19.10;;;;;;;;;;4954098;29;20074;-70
2022/03/31 06:30:23;;;;;;;23.05;17.58;;;;;;;;;;4947402;29;20048;-70
2022/03/31 06:32:52;;;;;;;28.05;16.48;;;;;;;;;;4935021;29;20048;-70
2022/03/31 06:35:23;;;;;;;28.63;17.95;;;;;;;;;;4925722;29;20056;-71
2022/03/31 06:37:52;;;;;;;30.60;16.92;;;;;;;;;;4949039;29;20047;-70
2022/03/31 06:40:21;;;;;;;25.10;19.35;;;;;;;;;;4936201;29;20142;-71
2022/03/31 06:42:50;;;;;;;30.60;18.02;;;;;;;;;;4936002;29;20083;-71
2022/03/31 06:45:19;;;;;;;27.67;18.35;;;;;;;;;;4936010;29;20054;-71
2022/03/31 06:47:56;;;;;;;37.35;18.95;;;;;;;;;;4935973;28;20503;-71
2022/03/31 06:50:30;;;;;;;29.75;18.67;;;;;;;;;;4936343;28;20582;-70
2022/03/31 06:52:59;;;;;;;30.25;17.85;;;;;;;;;;4936412;29;20414;-71
2022/03/31 06:55:28;;;;;;;27.40;18.20;;;;;;;;;;4944953;28;20483;-71
2022/03/31 06:57:57;;;;;;;27.25;18.17;;;;;;;;;;4944434;28;20111;-71
2022/03/31 07:00:26;;;;;;;31.48;19.92;;;;;;;;;;4958771;28;20101;-70
2022/03/31 07:02:54;;;;;;;31.33;19.80;;;;;;;;;;4958106;28;20058;-69
2022/03/31 07:05:24;;;;;;;26.75;19.05;;;;;;;;;;4958773;28;20051;-70
2022/03/31 07:07:55;;;;;;;29.15;18.02;;;;;;;;;;4958079;28;20055;-70
2022/03/31 07:10:24;;;;;;;35.97;19.42;;;;;;;;;;4958189;28;20051;-70
2022/03/31 07:12:52;;;;;;;23.65;18.33;;;;;;;;;;4957230;28;20113;-71
2022/03/31 07:15:23;;;;;;;26.05;18.10;;;;;;;;;;4958043;28;20110;-70
2022/03/31 07:17:55;;;;;;;25.40;18.50;;;;;;;;;;4958463;28;20495;-70
2022/03/31 07:20:25;;;;;;;32.40;17.75;;;;;;;;;;4958385;28;20443;-71
2022/03/31 07:22:54;;;;;;;24.38;16.98;;;;;;;;;;4958153;28;20054;-71
2022/03/31 07:25:22;;;;;;;26.55;18.08;;;;;;;;;;4958030;28;20051;-70
2022/03/31 07:27:51;;;;;;;26.33;19.05;;;;;;;;;;4957739;28;20139;-71
2022/03/31 07:30:19;;;;;;;24.40;17.05;;;;;;;;;;4953120;28;20075;-71
2022/03/31 07:32:53;;;;;;;19.23;16.77;;;;;;;;;;4950482;28;20075;-69
2022/03/31 07:35:23;;;;;;;25.98;18.92;;;;;;;;;;4957335;29;20055;-69
2022/03/31 07:37:51;;;;;;;22.40;17.20;;;;;;;;;;4957951;28;20490;-69
2022/03/31 07:40:21;;;;;;;19.45;16.80;;;;;;;;;;4944563;28;20063;-71
2022/03/31 07:42:49;;;;;;;22.42;15.13;;;;;;;;;;4938966;29;20083;-71
2022/03/31 07:45:19;;;;;;;22.02;16.02;;;;;;;;;;4939610;28;20106;-70
2022/03/31 07:47:47;;;;;;;18.77;14.82;;;;;;;;;;4938808;29;20447;-70
2022/03/31 07:50:17;;;;;;;17.42;15.35;;;;;;;;;;4939200;29;20057;-70
2022/03/31 07:52:47;;;;;;;22.98;16.30;;;;;;;;;;4938772;28;20078;-71
2022/03/31 07:55:16;;;;;;;18.98;15.20;;;;;;;;;;4938865;28;20051;-71
2022/03/31 07:57:46;;;;;;;21.05;14.90;;;;;;;;;;4938900;29;20074;-71
2022/03/31 08:00:16;;;;;;;19.27;15.95;;;;;;;;;;4938777;29;20054;-71
2022/03/31 08:02:50;;;;;;;18.48;15.30;;;;;;;;;;4938895;28;20504;-71
2022/03/31 08:05:23;;;;;;;20.90;15.90;;;;;;;;;;4938610;28;20052;-71
2022/03/31 08:07:52;;;;;;;24.13;17.50;;;;;;;;;;4937457;29;20099;-71
2022/03/31 08:10:20;;;;;;;15.93;14.25;;;;;;;;;;4950688;29;20047;-71
2022/03/31 08:12:49;;;;;;;17.45;13.85;;;;;;;;;;4956994;28;20387;-71
2022/03/31 08:15:17;;;;;;;16.02;12.18;;;;;;;;;;4956698;28;20058;-69
2022/03/31 08:17:47;;;;;;;15.13;13.52;;;;;;;;;;4956403;28;20400;-71
2022/03/31 08:20:17;;;;;;;13.27;11.93;;;;;;;;;;4956859;28;20051;-71
2022/03/31 08:22:46;;;;;;;15.10;11.77;;;;;;;;;;4957213;28;20055;-71
2022/03/31 08:25:17;;;;;;;14.55;12.23;;;;;;;;;;4957262;28;20051;-70
2022/03/31 08:27:49;;;;;;;14.93;12.73;;;;;;;;;;4955579;29;20051;-70
2022/03/31 08:30:23;;;;;;;13.02;11.68;;;;;;;;;;4956483;28;20051;-69
2022/03/31 08:32:55;;;;;;;13.82;11.02;;;;;;;;;;4957018;28;20090;-71
2022/03/31 08:35:27;;;;;;;14.27;12.73;;;;;;;;;;4943625;28;20407;-70
2022/03/31 08:37:56;;;;;;;14.93;12.05;;;;;;;;;;4937719;29;20052;-70
2022/03/31 08:40:25;;;;;;;13.65;12.02;;;;;;;;;;4938044;28;20055;-70
2022/03/31 08:42:54;;;;;;;14.45;11.73;;;;;;;;;;4937547;29;20455;-70
2022/03/31 08:45:23;;;;;;;14.65;12.60;;;;;;;;;;4937132;29;20044;-69
2022/03/31 08:47:53;;;;;;;14.57;12.60;;;;;;;;;;4936366;29;20047;-70
2022/03/31 08:50:25;;;;;;;18.85;13.45;;;;;;;;;;4937642;28;20052;-69
2022/03/31 08:52:54;;;;;;;14.50;12.60;;;;;;;;;;4937247;28;20052;-70
2022/03/31 08:55:24;;;;;;;16.73;12.80;;;;;;;;;;4937575;29;20135;-70
2022/03/31 08:57:54;;;;;;;15.85;14.13;;;;;;;;;;4937090;28;20058;-69
2022/03/31 09:00:24;;;;;;;17.48;15.50;;;;;;;;;;4950502;29;20435;-70
2022/03/31 09:03:03;;;;;;;19.17;14.70;;;;;;;;;;4956174;28;20051;-70
2022/03/31 09:06:05;;;;;;;22.00;15.00;;;;;;;;;;4937305;29;20114;-70
2022/03/31 09:08:34;;;;;;;16.70;13.82;;;;;;;;;;4936392;29;20111;-70
2022/03/31 09:11:05;;;;;;;18.75;15.73;;;;;;;;;;4937165;28;20504;-70
2022/03/31 09:13:36;;;;;;;18.85;15.77;;;;;;;;;;4954287;28;20410;-70
2022/03/31 09:16:12;;;;;;;18.58;16.58;;;;;;;;;;4949123;28;20083;-71
2022/03/31 09:19:03;;;;;;;18.48;15.25;;;;;;;;;;4936453;29;20091;-70
2022/03/31 09:21:35;;;;;;;27.63;18.80;;;;;;;;;;4937110;28;20047;-70
2022/03/31 09:24:05;;;;;;;20.30;17.15;;;;;;;;;;4936891;29;20115;-70
2022/03/31 09:26:45;;;;;;;23.17;18.08;;;;;;;;;;4937086;28;20404;-70
2022/03/31 09:29:15;;;;;;;20.52;18.33;;;;;;;;;;4936629;29;20070;-70
2022/03/31 09:31:45;;;;;;;23.25;18.88;;;;;;;;;;4952231;29;20047;-70
2022/03/31 09:34:17;;;;;;;22.75;18.10;;;;;;;;;;4944791;29;20406;-70
2022/03/31 09:36:52;;;;;;;20.92;17.08;;;;;;;;;;4955403;28;20111;-71
2022/03/31 09:39:23;;;;;;;22.80;17.48;;;;;;;;;;4949348;28;20056;-71
2022/03/31 09:41:57;;;;;;;22.08;18.00;;;;;;;;;;4937224;28;20047;-70
2022/03/31 09:44:26;;;;;;;;;;;;;;;;;;4937578;29;20048;-71
2022/03/31 09:46:54;;;;;;;28.65;19.08;;;;;;;;;;4945122;28;19929;-70
2022/03/31 09:49:29;;;;;;;29.42;17.17;;;;;;;;;;4955085;28;20486;-70
2022/03/31 09:52:03;;;;;;;32.47;18.80;;;;;;;;;;4955227;28;20051;-70
2022/03/31 09:54:36;;;;;;;23.73;15.98;;;;;;;;;;4955558;28;20090;-69
2022/03/31 09:57:07;;;;;;;29.08;17.20;;;;;;;;;;4955174;28;20070;-70
2022/03/31 09:59:41;;;;;;;35.92;20.40;;;;;;;;;;4955545;28;20082;-69
2022/03/31 10:02:10;;;;;;;25.00;17.63;;;;;;;;;;4955132;28;20055;-69
2022/03/31 10:04:39;;;;;;;24.15;17.88;;;;;;;;;;4955470;28;20090;-69
2022/03/31 10:07:10;;;;;;;36.65;17.58;;;;;;;;;;4954243;29;20138;-70
2022/03/31 10:09:40;;;;;;;24.40;15.25;;;;;;;;;;4953659;29;20047;-70
2022/03/31 10:12:26;;;;;;;25.40;16.67;;;;;;;;;;4953732;28;20055;-70
2022/03/31 10:14:57;;;;;;;22.50;14.95;;;;;;;;;;4953731;28;20130;-70
2022/03/31 10:17:46;;;;;;;21.45;14.18;;;;;;;;;;4936311;29;20051;-70
2022/03/31 10:20:17;;;;;;;27.48;15.07;;;;;;;;;;4936049;29;20408;-70
2022/03/31 10:25:51;;;;;;;26.50;15.18;;;;;;;;;;4937006;28;20056;-70
2022/03/31 10:28:21;;;;;;;25.92;15.57;;;;;;;;;;4936090;29;20062;-70
2022/03/31 10:31:01;;;;;;;24.13;14.95;;;;;;;;;;4936422;29;20048;-70
2022/03/31 10:33:37;;;;;;;30.75;16.70;;;;;;;;;;4940467;29;20063;-70
2022/03/31 10:36:16;;;;;;;20.20;15.20;;;;;;;;;;4939866;29;20056;-69
2022/03/31 10:39:02;;;;;;;22.77;16.92;;;;;;;;;;4939581;29;20051;-70
2022/03/31 10:41:39;;;;;;;29.50;16.17;;;;;;;;;;4939692;29;20094;-70
2022/03/31 10:44:12;;;;;;;24.45;16.33;;;;;;;;;;4939647;29;20082;-70
2022/03/31 10:46:45;;;;;;;23.48;15.15;;;;;;;;;;4939389;28;20067;-70
2022/03/31 10:49:17;;;;;;;22.88;16.08;;;;;;;;;;4939404;29;20392;-70
2022/03/31 10:51:48;;;;;;;20.27;16.20;;;;;;;;;;4939863;28;20099;-69
2022/03/31 10:54:33;;;;;;;21.70;15.38;;;;;;;;;;4946415;28;20057;-70
2022/03/31 10:57:03;;;;;;;27.75;15.27;;;;;;;;;;4958643;28;20582;-70
2022/03/31 10:59:32;;;;;;;18.48;14.13;;;;;;;;;;4958989;28;20075;-69
2022/03/31 11:02:22;;;;;;;22.65;15.15;;;;;;;;;;4942184;28;20055;-70
2022/03/31 11:04:55;;;;;;;22.30;13.35;;;;;;;;;;4946650;28;20051;-70
2022/03/31 11:07:26;;;;;;;19.38;14.85;;;;;;;;;;4958200;28;20051;-70
2022/03/31 11:10:07;;;;;;;21.45;13.80;;;;;;;;;;4958222;28;20527;-70
2022/03/31 11:12:36;;;;;;;29.35;15.30;;;;;;;;;;4940246;28;20051;-70
2022/03/31 11:15:09;;;;;;;26.23;14.82;;;;;;;;;;4939093;29;20059;-70
2022/03/31 11:17:40;;;;;;;25.27;15.25;;;;;;;;;;4939265;29;20059;-69
2022/03/31 11:20:14;;;;;;;24.48;14.30;;;;;;;;;;4939680;28;20075;-70
2022/03/31 11:22:51;;;;;;;18.05;13.10;;;;;;;;;;4938812;28;20067;-69
2022/03/31 11:25:20;;;;;;;22.55;13.45;;;;;;;;;;4938778;29;20451;-70
2022/03/31 11:27:49;;;;;;;23.00;14.43;;;;;;;;;;4944888;29;20142;-69
2022/03/31 11:30:24;;;;;;;19.77;14.88;;;;;;;;;;4957633;28;20142;-70
2022/03/31 11:32:55;;;;;;;19.98;13.68;;;;;;;;;;4957278;28;20055;-69
2022/03/31 11:35:28;;;;;;;17.35;13.48;;;;;;;;;;4956119;28;20078;-71
2022/03/31 11:38:02;;;;;;;22.30;13.35;;;;;;;;;;4949508;29;20562;-69
2022/03/31 11:40:33;;;;;;;17.85;13.82;;;;;;;;;;4951412;28;20058;-69
2022/03/31 11:43:05;;;;;;;20.90;12.43;;;;;;;;;;4956384;28;20086;-69
2022/03/31 11:45:44;;;;;;;26.85;12.25;;;;;;;;;;4939041;29;20060;-70
2022/03/31 11:48:40;;;;;;;19.95;13.13;;;;;;;;;;4955041;29;20141;-69
2022/03/31 11:51:09;;;;;;;22.10;13.40;;;;;;;;;;4957069;28;20063;-69
2022/03/31 11:53:41;;;;;;;18.38;12.15;;;;;;;;;;4957404;28;20094;-69
2022/03/31 11:56:18;;;;;;;16.77;13.23;;;;;;;;;;4956797;28;20086;-69
2022/03/31 11:58:51;;;;;;;20.50;12.70;;;;;;;;;;4957452;28;20065;-69
2022/03/31 12:02:01;;;;;;;23.98;11.07;;;;;;;;;;4957330;28;20059;-70
2022/03/31 12:04:31;;;;;;;17.08;11.23;;;;;;;;;;4956750;28;20391;-70
2022/03/31 12:07:02;;;;;;;18.15;11.77;;;;;;;;;;4957276;28;20047;-70
2022/03/31 12:09:35;;;;;;;20.90;12.10;;;;;;;;;;4955748;29;20047;-70
2022/03/31 12:12:06;;;;;;;16.77;10.82;;;;;;;;;;4956743;28;20061;-70
2022/03/31 12:14:37;;;;;;;21.70;11.05;;;;;;;;;;4957300;28;20051;-70
2022/03/31 12:17:06;;;;;;;26.65;13.15;;;;;;;;;;4957086;28;20138;-70
2022/03/31 12:19:42;;;;;;;23.27;12.70;;;;;;;;;;4953035;29;20570;-71
2022/03/31 12:22:11;;;;;;;19.65;11.93;;;;;;;;;;4938037;29;20066;-70
2022/03/31 12:24:50;;;;;;;21.10;10.15;;;;;;;;;;4937578;28;20055;-70
2022/03/31 12:27:20;;;;;;;16.48;10.50;;;;;;;;;;4955901;28;20055;-70
2022/03/31 12:30:01;;;;;;;23.45;10.35;;;;;;;;;;4956188;29;20054;-70
2022/03/31 12:32:33;;;;;;;17.55;11.82;;;;;;;;;;4955701;29;20106;-71
2022/03/31 12:35:03;;;;;;;15.82;10.60;;;;;;;;;;4943070;28;20051;-70
2022/03/31 12:37:34;;;;;;;21.38;12.38;;;;;;;;;;4938489;28;20052;-70
2022/03/31 12:40:17;;;;;;;23.33;11.48;;;;;;;;;;4950166;28;20109;-70
2022/03/31 12:43:11;;;;;;;16.52;10.82;;;;;;;;;;4937927;29;20073;-70
2022/03/31 12:45:42;;;;;;;23.02;10.68;;;;;;;;;;4937614;29;20051;-70
2022/03/31 12:48:12;;;;;;;22.65;9.80;;;;;;;;;;4951976;28;20132;-70
2022/03/31 12:50:42;;;;;;;28.55;11.07;;;;;;;;;;4956926;28;20043;-71
2022/03/31 12:53:11;;;;;;;16.50;10.45;;;;;;;;;;4938157;28;20124;-71
2022/03/31 12:55:44;;;;;;;19.25;10.18;;;;;;;;;;4936725;28;20052;-71
2022/03/31 12:58:13;;;;;;;16.73;9.95;;;;;;;;;;4956389;28;20065;-71
2022/03/31 13:00:52;;;;;;;13.45;9.77;;;;;;;;;;4955798;28;20134;-71
2022/03/31 13:03:21;;;;;;;14.93;9.98;;;;;;;;;;4952850;28;20050;-70
2022/03/31 13:05:51;;;;;;;16.73;10.82;;;;;;;;;;4926726;29;20065;-69
2022/03/31 13:08:19;;;;;;;16.40;9.85;;;;;;;;;;4953819;28;20434;-68
2022/03/31 13:10:48;;;;;;;20.23;10.77;;;;;;;;;;4954168;28;20473;-70
2022/03/31 13:13:17;;;;;;;18.23;9.07;;;;;;;;;;4954182;28;20051;-68
2022/03/31 13:16:07;;;;;;;15.85;9.27;;;;;;;;;;4955604;28;20039;-68
2022/03/31 13:18:35;;;;;;;24.60;12.32;;;;;;;;;;4944358;28;20411;-68
2022/03/31 13:21:04;;;;;;;16.05;10.80;;;;;;;;;;4928297;29;20048;-68
2022/03/31 13:23:32;;;;;;;16.13;9.65;;;;;;;;;;4940566;29;20074;-68
2022/03/31 13:26:02;;;;;;;19.35;9.73;;;;;;;;;;4936667;29;20047;-68
2022/03/31 13:28:31;;;;;;;21.52;13.00;;;;;;;;;;4936359;28;20130;-68
2022/03/31 13:31:01;;;;;;;22.63;17.00;;;;;;;;;;4936636;29;20155;-68
2022/03/31 13:33:31;;;;;;;23.80;16.40;;;;;;;;;;4937078;29;20048;-68
2022/03/31 13:36:00;;;;;;;20.85;17.88;;;;;;;;;;4953827;28;20055;-68
2022/03/31 13:38:31;;;;;;;29.50;17.88;;;;;;;;;;4936936;29;20047;-68
2022/03/31 13:41:01;;;;;;;30.17;20.85;;;;;;;;;;4935365;29;20055;-68
2022/03/31 13:43:32;;;;;;;22.95;20.33;;;;;;;;;;4936391;29;20448;-68
2022/03/31 13:46:02;;;;;;;27.27;19.38;;;;;;;;;;4950121;29;20149;-68
2022/03/31 13:48:31;;;;;;;28.45;22.02;;;;;;;;;;4954890;29;20510;-68
2022/03/31 13:51:00;;;;;;;28.02;17.55;;;;;;;;;;4953522;29;20057;-69
2022/03/31 13:53:46;;;;;;;33.05;18.10;;;;;;;;;;4919138;29;20047;-69
2022/03/31 13:56:15;;;;;;;21.05;17.17;;;;;;;;;;4949861;28;20140;-69
2022/03/31 14:01:35;;;;;;;31.95;19.92;;;;;;;;;;4954148;28;20134;-68
2022/03/31 14:04:04;;;;;;;28.33;18.27;;;;;;;;;;4954387;28;20055;-68
2022/03/31 14:06:40;;;;;;;23.90;19.10;;;;;;;;;;4952565;28;20043;-68
2022/03/31 14:09:09;;;;;;;27.38;17.45;;;;;;;;;;4954046;29;20498;-68
2022/03/31 14:11:38;;;;;;;22.13;16.73;;;;;;;;;;4953350;28;20067;-68
2022/03/31 14:14:12;;;;;;;31.20;18.63;;;;;;;;;;4919620;29;20127;-69
2022/03/31 14:16:44;;;;;;;31.13;18.33;;;;;;;;;;4955170;28;20063;-68
2022/03/31 14:19:12;;;;;;;21.63;15.32;;;;;;;;;;4954942;28;20059;-69
2022/03/31 14:21:43;;;;;;;33.20;18.60;;;;;;;;;;4953865;29;20134;-71
2022/03/31 14:24:11;;;;;;;21.45;14.57;;;;;;;;;;4938151;29;20114;-68
2022/03/31 14:26:46;;;;;;;25.05;16.63;;;;;;;;;;4938539;29;20051;-68
2022/03/31 14:29:18;;;;;;;24.77;14.50;;;;;;;;;;4948977;28;20047;-68
2022/03/31 14:31:53;;;;;;;28.25;15.05;;;;;;;;;;4953991;29;20051;-68
2022/03/31 14:34:26;;;;;;;18.75;14.82;;;;;;;;;;4953732;29;20089;-68
2022/03/31 14:36:57;;;;;;;22.05;16.88;;;;;;;;;;4954142;29;20055;-69
2022/03/31 14:39:30;;;;;;;22.90;15.13;;;;;;;;;;4954775;28;20055;-69
2022/03/31 14:42:06;;;;;;;19.08;15.07;;;;;;;;;;4954178;28;20522;-69
2022/03/31 14:44:36;;;;;;;15.85;10.68;;;;;;;;;;4939108;28;20066;-67
2022/03/31 14:47:06;;;;;;;22.75;10.95;;;;;;;;;;4917608;29;20451;-68
2022/03/31 14:49:38;;;;;;;16.85;11.80;;;;;;;;;;4948520;29;20190;-68